createdAt,value
2017-10-20T00:00:03.648Z,97.33
2017-10-20T00:02:32.106Z,97.71
2017-10-20T00:05:00.585Z,97.39
2017-10-20T00:07:29.816Z,97.62
2017-10-20T00:09:58.285Z,98.00
2017-10-20T00:12:26.780Z,97.94
2017-10-20T00:14:55.278Z,97.78
2017-10-20T00:17:23.723Z,97.79
2017-10-20T00:19:52.228Z,98.13
2017-10-20T00:22:20.709Z,98.18
2017-10-20T00:24:49.166Z,98.12
2017-10-20T00:27:17.633Z,97.89
2017-10-20T00:29:46.854Z,98.01
2017-10-20T00:32:15.325Z,97.96
2017-10-20T00:34:43.835Z,98.02
2017-10-20T00:37:12.309Z,98.11
2017-10-20T00:39:40.760Z,98.07
2017-10-20T00:42:10.004Z,98.05
2017-10-20T00:44:38.462Z,98.00
2017-10-20T00:47:06.934Z,98.21
2017-10-20T00:49:35.381Z,98.18
2017-10-20T00:52:03.858Z,98.05
2017-10-20T00:54:32.309Z,98.13
2017-10-20T00:57:00.810Z,98.26
2017-10-20T00:59:29.261Z,98.08
2017-10-20T01:01:57.709Z,98.39
2017-10-20T01:04:27.049Z,98.13
2017-10-20T01:06:55.498Z,98.22
2017-10-20T01:09:24.834Z,98.36
2017-10-20T01:11:53.281Z,98.61
2017-10-20T01:14:22.519Z,98.36
2017-10-20T01:16:51.006Z,98.49
2017-10-20T01:19:19.483Z,98.40
2017-10-20T01:21:47.965Z,98.41
2017-10-20T01:24:16.555Z,98.25
2017-10-20T01:26:45.032Z,98.37
2017-10-20T01:29:13.508Z,98.67
2017-10-20T01:31:41.958Z,98.28
2017-10-20T01:34:11.202Z,98.52
2017-10-20T01:36:39.652Z,98.62
2017-10-20T01:39:08.118Z,98.37
2017-10-20T01:41:37.335Z,98.57
2017-10-20T01:44:05.812Z,98.59
2017-10-20T01:46:34.327Z,98.93
2017-10-20T01:49:02.806Z,98.68
2017-10-20T01:51:31.258Z,98.46
2017-10-20T01:53:59.725Z,98.37
2017-10-20T01:56:28.938Z,98.43
2017-10-20T01:58:57.445Z,98.54
2017-10-20T02:01:26.034Z,98.38
2017-10-20T02:03:54.476Z,98.22
2017-10-20T02:06:23.720Z,98.21
2017-10-20T02:08:52.164Z,98.29
2017-10-20T02:11:21.395Z,98.15
2017-10-20T02:13:49.850Z,98.06
2017-10-20T02:16:18.321Z,98.07
2017-10-20T02:18:47.536Z,97.91
2017-10-20T02:21:16.011Z,97.80
2017-10-20T02:23:44.460Z,97.99
2017-10-20T02:26:12.941Z,98.13
2017-10-20T02:28:41.486Z,98.07
2017-10-20T02:31:09.959Z,98.08
2017-10-20T02:33:38.411Z,98.05
2017-10-20T02:36:07.641Z,97.89
2017-10-20T02:38:36.139Z,98.05
2017-10-20T02:41:04.715Z,98.03
2017-10-20T02:43:33.199Z,98.13
2017-10-20T02:46:01.645Z,98.18
2017-10-20T02:48:30.880Z,98.03
2017-10-20T02:50:59.339Z,97.93
2017-10-20T02:53:27.850Z,98.09
2017-10-20T02:55:56.297Z,98.00
2017-10-20T02:58:24.764Z,97.97
2017-10-20T03:00:54.001Z,98.05
2017-10-20T03:03:22.483Z,98.18
2017-10-20T03:05:50.938Z,98.25
2017-10-20T03:08:20.173Z,98.06
2017-10-20T03:10:48.653Z,98.25
2017-10-20T03:13:17.236Z,98.31
2017-10-20T03:15:45.686Z,98.25
2017-10-20T03:18:15.019Z,98.25
2017-10-20T03:20:43.460Z,98.42
2017-10-20T03:23:12.713Z,98.49
2017-10-20T03:25:41.161Z,98.51
2017-10-20T03:28:09.659Z,98.48
2017-10-20T03:30:38.135Z,98.49
2017-10-20T03:33:06.630Z,98.38
2017-10-20T03:35:35.219Z,98.35
2017-10-20T03:38:03.673Z,98.41
2017-10-20T03:40:32.136Z,98.42
2017-10-20T03:43:01.376Z,98.37
2017-10-20T03:45:29.962Z,98.38
2017-10-20T03:47:58.437Z,98.34
2017-10-20T03:50:26.909Z,98.23
2017-10-20T03:52:55.348Z,98.06
2017-10-20T03:55:23.817Z,98.06
2017-10-20T03:57:52.366Z,97.96
2017-10-20T04:00:20.842Z,97.77
2017-10-20T04:02:49.297Z,97.68
2017-10-20T04:05:18.524Z,97.44
2017-10-20T04:07:46.965Z,97.31
2017-10-20T04:10:16.203Z,97.29
2017-10-20T04:12:44.659Z,97.48
2017-10-20T04:15:13.898Z,97.51
2017-10-20T04:17:42.350Z,97.71
2017-10-20T04:20:10.860Z,97.89
2017-10-20T04:22:39.330Z,97.75
2017-10-20T04:25:07.823Z,97.83
2017-10-20T04:27:36.294Z,97.71
2017-10-20T04:30:04.746Z,97.97
2017-10-20T04:32:34.086Z,98.00
2017-10-20T04:35:02.538Z,97.99
2017-10-20T04:37:31.782Z,97.82
2017-10-20T04:40:00.254Z,97.88
2017-10-20T04:42:28.731Z,98.13
2017-10-20T04:44:57.181Z,98.00
2017-10-20T04:47:26.449Z,98.20
2017-10-20T04:49:54.896Z,98.14
2017-10-20T04:52:23.481Z,97.91
2017-10-20T04:54:51.963Z,98.14
2017-10-20T04:57:20.437Z,98.04
2017-10-20T04:59:49.032Z,98.06
2017-10-20T05:02:18.396Z,98.15
2017-10-20T05:04:47.633Z,98.13
2017-10-20T05:07:16.086Z,97.97
2017-10-20T05:09:44.563Z,98.20
2017-10-20T05:12:13.778Z,98.05
2017-10-20T05:14:42.253Z,98.00
2017-10-20T05:17:10.706Z,98.03
2017-10-20T05:19:39.937Z,97.84
2017-10-20T05:22:08.390Z,97.87
2017-10-20T05:24:37.629Z,97.93
2017-10-20T05:27:06.073Z,97.94
2017-10-20T05:29:35.320Z,97.90
2017-10-20T05:32:03.803Z,98.04
2017-10-20T05:34:32.275Z,97.92
2017-10-20T05:37:00.766Z,98.23
2017-10-20T05:39:29.341Z,98.07
2017-10-20T05:41:57.793Z,97.92
2017-10-20T05:44:27.020Z,98.23
2017-10-20T05:46:55.498Z,98.34
2017-10-20T05:49:23.958Z,98.19
2017-10-20T05:51:53.194Z,98.12
2017-10-20T05:54:24.001Z,98.14
2017-10-20T05:56:52.505Z,98.02
2017-10-20T05:59:21.918Z,97.87
2017-10-20T06:01:50.498Z,97.83
2017-10-20T06:04:18.986Z,97.72
2017-10-20T06:06:47.454Z,97.57
2017-10-20T06:09:15.943Z,97.54
2017-10-20T06:11:44.414Z,97.82
2017-10-20T06:14:12.853Z,97.55
2017-10-20T06:16:41.320Z,97.78
2017-10-20T06:19:09.765Z,97.35
2017-10-20T06:21:38.221Z,97.14
2017-10-20T06:24:07.457Z,97.12
2017-10-20T06:26:35.900Z,97.17
2017-10-20T06:29:05.130Z,97.08
2017-10-20T06:31:33.573Z,97.20
2017-10-20T06:34:02.806Z,97.07
2017-10-20T06:36:31.249Z,96.85
2017-10-20T06:39:00.482Z,96.88
2017-10-20T06:41:28.980Z,96.78
2017-10-20T06:43:57.450Z,96.58
2017-10-20T06:46:25.902Z,96.47
2017-10-20T06:48:55.133Z,96.65
2017-10-20T06:51:23.582Z,96.34
2017-10-20T06:53:52.925Z,96.42
2017-10-20T06:56:21.370Z,96.27
2017-10-20T06:58:50.597Z,96.22
2017-10-20T07:01:19.046Z,95.94
2017-10-20T07:03:48.390Z,95.85
2017-10-20T07:06:16.833Z,95.70
2017-10-20T07:08:46.071Z,95.70
2017-10-20T07:11:14.655Z,95.47
2017-10-20T07:13:43.143Z,95.11
2017-10-20T07:16:11.615Z,95.04
2017-10-20T07:18:50.893Z,94.78
2017-10-20T07:21:19.366Z,94.74
2017-10-20T07:23:47.814Z,94.58
2017-10-20T07:26:16.402Z,94.54
2017-10-20T07:28:44.869Z,94.14
2017-10-20T07:31:13.332Z,94.16
2017-10-20T07:33:42.536Z,93.88
2017-10-20T07:36:11.769Z,93.99
2017-10-20T07:38:40.220Z,93.56
2017-10-20T07:41:08.685Z,93.33
2017-10-20T07:43:37.888Z,93.08
2017-10-20T07:46:07.123Z,92.84
2017-10-20T07:48:35.571Z,92.71
2017-10-20T07:51:04.807Z,92.80
2017-10-20T07:53:33.259Z,92.57
2017-10-20T07:56:01.738Z,91.75
2017-10-20T07:58:30.210Z,91.97
2017-10-20T08:00:59.557Z,91.66
2017-10-20T08:03:28.002Z,91.34
2017-10-20T08:05:57.217Z,91.69
2017-10-20T08:08:25.684Z,91.08
2017-10-20T08:10:54.899Z,90.83
2017-10-20T08:13:23.380Z,90.66
2017-10-20T08:15:51.881Z,90.45
2017-10-20T08:18:21.199Z,90.03
2017-10-20T08:20:49.659Z,90.08
2017-10-20T08:23:18.129Z,89.47
2017-10-20T08:25:46.573Z,88.84
2017-10-20T08:28:15.861Z,88.18
2017-10-20T08:30:44.311Z,88.15
2017-10-20T08:33:12.927Z,88.00
2017-10-20T08:35:41.375Z,88.24
2017-10-20T08:38:09.849Z,87.58
2017-10-20T08:40:38.306Z,87.38
2017-10-20T08:43:07.542Z,87.29
2017-10-20T08:45:35.991Z,87.07
2017-10-20T08:48:04.498Z,86.89
2017-10-20T08:50:32.991Z,85.84
2017-10-20T08:53:01.433Z,86.00
2017-10-20T08:55:30.666Z,86.50
2017-10-20T08:57:59.107Z,85.63
2017-10-20T09:00:28.493Z,85.59
2017-10-20T09:02:56.933Z,85.32
2017-10-20T09:05:25.410Z,85.94
2017-10-20T09:07:53.895Z,85.46
2017-10-20T09:10:22.366Z,85.07
2017-10-20T09:12:50.808Z,84.82
2017-10-20T09:15:20.047Z,84.99
2017-10-20T09:17:48.542Z,84.33
2017-10-20T09:20:17.018Z,84.63
2017-10-20T09:22:45.461Z,84.09
2017-10-20T09:25:14.692Z,84.00
2017-10-20T09:27:43.136Z,84.04
2017-10-20T09:30:12.489Z,83.78
2017-10-20T09:32:40.939Z,83.24
2017-10-20T09:35:09.389Z,83.46
2017-10-20T09:37:37.861Z,83.52
2017-10-20T09:40:06.325Z,83.57
2017-10-20T09:42:34.814Z,83.05
2017-10-20T09:45:03.252Z,83.02
2017-10-20T09:47:31.760Z,82.31
2017-10-20T09:50:00.243Z,82.19
2017-10-20T09:52:28.709Z,82.67
2017-10-20T09:54:57.199Z,82.15
2017-10-20T09:57:25.669Z,81.45
2017-10-20T09:59:54.116Z,80.33
2017-10-20T10:02:23.359Z,80.65
2017-10-20T10:04:51.808Z,80.32
2017-10-20T10:07:21.041Z,79.87
2017-10-20T10:09:49.488Z,79.99
2017-10-20T10:12:18.833Z,80.17
2017-10-20T10:14:47.324Z,80.25
2017-10-20T10:17:15.903Z,79.20
2017-10-20T10:19:44.375Z,79.61
2017-10-20T10:22:12.846Z,78.79
2017-10-20T10:24:41.289Z,78.62
2017-10-20T10:27:09.786Z,78.58
2017-10-20T10:29:38.989Z,78.62
2017-10-20T10:32:08.202Z,78.16
2017-10-20T10:34:36.666Z,78.22
2017-10-20T10:37:05.880Z,77.01
2017-10-20T10:39:34.350Z,78.12
2017-10-20T10:42:03.562Z,78.33
2017-10-20T10:44:32.063Z,78.91
2017-10-20T10:47:00.505Z,78.71
2017-10-20T10:49:29.747Z,78.54
2017-10-20T10:51:58.194Z,78.01
2017-10-20T10:54:27.430Z,77.71
2017-10-20T10:56:55.873Z,77.33
2017-10-20T10:59:25.210Z,76.70
2017-10-20T11:01:53.695Z,76.43
2017-10-20T11:04:22.194Z,76.11
2017-10-20T11:07:08.466Z,76.55
2017-10-20T11:09:54.778Z,77.00
2017-10-20T11:12:41.179Z,76.33
2017-10-20T11:15:09.645Z,76.92
2017-10-20T11:17:38.146Z,76.69
2017-10-20T11:20:06.630Z,76.82
2017-10-20T11:22:35.086Z,77.06
2017-10-20T11:25:03.535Z,76.96
2017-10-20T11:27:31.997Z,77.96
2017-10-20T11:30:00.545Z,77.20
2017-10-20T11:32:29.028Z,77.68
2017-10-20T11:34:57.480Z,77.26
2017-10-20T11:37:26.708Z,77.70
2017-10-20T11:39:55.200Z,76.79
2017-10-20T11:42:23.666Z,76.63
2017-10-20T11:44:52.114Z,76.86
2017-10-20T11:47:21.466Z,77.00
2017-10-20T11:49:49.914Z,76.69
2017-10-20T11:52:19.147Z,77.08
2017-10-20T11:54:47.589Z,76.47
2017-10-20T11:57:16.822Z,76.28
2017-10-20T11:59:45.269Z,75.92
2017-10-20T12:02:14.533Z,75.59
2017-10-20T12:04:43.062Z,76.06
2017-10-20T12:07:11.506Z,76.10
2017-10-20T12:09:39.976Z,76.91
2017-10-20T12:12:08.417Z,76.47
2017-10-20T12:14:36.886Z,77.32
2017-10-20T12:17:05.399Z,77.26
2017-10-20T12:19:33.970Z,77.65
2017-10-20T12:22:02.517Z,78.13
2017-10-20T12:24:31.745Z,77.71
2017-10-20T12:27:00.262Z,77.64
2017-10-20T12:29:28.726Z,77.66
2017-10-20T12:31:57.172Z,77.27
2017-10-20T12:34:26.514Z,77.30
2017-10-20T12:36:54.998Z,77.67
2017-10-20T12:39:23.575Z,77.53
2017-10-20T12:41:52.018Z,77.62
2017-10-20T12:44:21.265Z,78.25
2017-10-20T12:46:49.746Z,79.26
2017-10-20T12:49:18.192Z,78.80
2017-10-20T12:51:47.453Z,79.91
2017-10-20T12:54:15.893Z,80.10
2017-10-20T12:56:44.353Z,80.46
2017-10-20T12:59:13.571Z,80.06
2017-10-20T13:01:42.032Z,80.18
2017-10-20T13:04:11.268Z,80.89
2017-10-20T13:06:39.730Z,80.13
2017-10-20T13:09:08.229Z,81.44
2017-10-20T13:11:36.698Z,80.39
2017-10-20T13:14:05.145Z,80.70
2017-10-20T13:16:34.381Z,80.88
2017-10-20T13:19:02.879Z,80.74
2017-10-20T13:21:31.341Z,80.04
2017-10-20T13:23:59.780Z,80.06
2017-10-20T13:26:28.245Z,80.63
2017-10-20T13:28:56.692Z,79.94
2017-10-20T13:31:25.162Z,80.17
2017-10-20T13:33:53.600Z,80.44
2017-10-20T13:36:22.065Z,80.48
2017-10-20T13:38:50.584Z,81.03
2017-10-20T13:41:19.809Z,81.04
2017-10-20T13:43:48.245Z,81.04
2017-10-20T13:46:16.737Z,80.99
2017-10-20T13:48:45.190Z,80.86
2017-10-20T13:51:13.650Z,80.70
2017-10-20T13:53:42.235Z,80.63
2017-10-20T13:56:10.678Z,81.22
2017-10-20T13:58:39.904Z,81.49
2017-10-20T14:01:08.398Z,81.10
2017-10-20T14:03:36.862Z,81.03
2017-10-20T14:06:05.315Z,81.54
2017-10-20T14:08:34.545Z,81.10
2017-10-20T14:11:03.048Z,81.15
2017-10-20T14:13:31.525Z,80.96
2017-10-20T14:15:59.969Z,80.90
2017-10-20T14:18:29.193Z,80.96
2017-10-20T14:20:57.662Z,80.89
2017-10-20T14:23:26.892Z,81.15
2017-10-20T14:25:55.378Z,82.04
2017-10-20T14:28:23.850Z,82.33
2017-10-20T14:30:52.597Z,82.21
2017-10-20T14:33:21.111Z,83.49
2017-10-20T14:35:49.558Z,83.74
2017-10-20T14:38:18.906Z,83.62
2017-10-20T14:40:47.394Z,85.66
2017-10-20T14:43:15.833Z,86.29
2017-10-20T14:45:45.069Z,86.83
2017-10-20T14:48:13.508Z,87.69
2017-10-20T14:50:42.860Z,87.59
2017-10-20T14:53:11.311Z,88.31
2017-10-20T14:55:39.770Z,88.04
2017-10-20T14:58:08.986Z,87.49
2017-10-20T15:00:37.456Z,87.97
2017-10-20T15:03:06.669Z,88.61
2017-10-20T15:05:35.894Z,89.95
2017-10-20T15:08:04.372Z,88.94
2017-10-20T15:10:32.845Z,89.51
2017-10-20T15:13:01.290Z,90.67
2017-10-20T15:15:29.822Z,91.27
2017-10-20T15:17:58.266Z,91.00
2017-10-20T15:20:27.526Z,91.45
2017-10-20T15:22:55.969Z,91.20
2017-10-20T15:25:24.410Z,90.15
2017-10-20T15:27:52.869Z,91.17
2017-10-20T15:30:21.316Z,91.78
2017-10-20T15:32:49.781Z,90.95
2017-10-20T15:35:18.986Z,89.48
2017-10-20T15:37:47.453Z,91.51
2017-10-20T15:40:16.658Z,91.64
2017-10-20T15:42:45.895Z,92.21
2017-10-20T15:45:14.337Z,91.41
2017-10-20T15:47:43.582Z,91.82
2017-10-20T15:50:12.025Z,92.03
2017-10-20T15:52:41.432Z,92.68
2017-10-20T15:55:09.873Z,92.10
2017-10-20T15:57:38.342Z,92.10
2017-10-20T16:00:06.811Z,91.68
2017-10-20T16:02:35.301Z,91.88
2017-10-20T16:05:03.745Z,92.16
2017-10-20T16:07:32.185Z,91.67
2017-10-20T16:10:00.652Z,92.51
2017-10-20T16:12:29.102Z,91.90
2017-10-20T16:14:57.570Z,92.30
2017-10-20T16:17:26.019Z,92.32
2017-10-20T16:19:54.558Z,92.57
2017-10-20T16:22:23.010Z,92.44
2017-10-20T16:24:52.241Z,92.85
2017-10-20T16:27:20.715Z,93.27
2017-10-20T16:29:49.194Z,93.32
2017-10-20T16:32:17.686Z,93.15
2017-10-20T16:34:46.162Z,92.72
2017-10-20T16:37:14.618Z,92.63
2017-10-20T16:39:43.950Z,92.89
2017-10-20T16:42:12.399Z,93.06
2017-10-20T16:44:41.627Z,92.84
2017-10-20T16:47:10.102Z,92.98
2017-10-20T16:49:38.558Z,93.42
2017-10-20T16:52:07.794Z,93.85
2017-10-20T16:54:36.276Z,93.76
2017-10-20T16:57:04.741Z,94.45
2017-10-20T16:59:33.195Z,94.26
2017-10-20T17:02:02.435Z,94.80
2017-10-20T17:04:30.923Z,94.10
2017-10-20T17:06:59.730Z,94.56
2017-10-20T17:09:28.168Z,94.45
2017-10-20T17:11:56.778Z,94.51
2017-10-20T17:14:25.253Z,94.12
2017-10-20T17:16:53.730Z,94.40
2017-10-20T17:19:22.168Z,94.42
2017-10-20T17:21:50.633Z,94.07
2017-10-20T17:24:19.073Z,93.85
2017-10-20T17:26:47.521Z,94.08
2017-10-20T17:29:16.748Z,94.66
2017-10-20T17:31:45.189Z,94.28
2017-10-20T17:34:13.730Z,93.68
2017-10-20T17:36:42.173Z,93.84
2017-10-20T17:39:11.402Z,93.42
2017-10-20T17:41:39.892Z,93.20
2017-10-20T17:44:08.478Z,93.76
2017-10-20T17:46:36.917Z,93.60
2017-10-20T17:49:06.140Z,93.80
2017-10-20T17:51:34.581Z,94.21
2017-10-20T17:54:03.112Z,93.97
2017-10-20T17:56:31.555Z,93.92
2017-10-20T17:59:00.049Z,94.39
2017-10-20T18:01:29.252Z,94.80
2017-10-20T18:03:58.506Z,94.94
2017-10-20T18:06:26.954Z,94.92
2017-10-20T18:08:55.408Z,94.62
2017-10-20T18:11:24.643Z,94.27
2017-10-20T18:13:53.096Z,95.09
2017-10-20T18:16:22.332Z,94.20
2017-10-20T18:18:50.769Z,94.47
2017-10-20T18:21:20.106Z,94.50
2017-10-20T18:23:48.554Z,94.24
2017-10-20T18:26:17.786Z,95.01
2017-10-20T18:28:46.265Z,95.04
2017-10-20T18:31:14.733Z,95.31
2017-10-20T18:33:43.178Z,95.20
2017-10-20T18:36:11.715Z,95.20
2017-10-20T18:38:40.199Z,94.67
2017-10-20T18:41:08.777Z,95.83
2017-10-20T18:43:37.265Z,95.02
2017-10-20T18:46:05.845Z,94.15
2017-10-20T18:48:34.285Z,94.57
2017-10-20T18:51:03.534Z,94.62
2017-10-20T18:53:31.993Z,94.97
2017-10-20T18:56:00.432Z,95.14
2017-10-20T18:58:28.980Z,96.16
2017-10-20T19:00:57.463Z,96.02
2017-10-20T19:03:26.023Z,95.79
2017-10-20T19:05:54.465Z,95.69
2017-10-20T19:08:23.064Z,96.00
2017-10-20T19:10:52.281Z,96.58
2017-10-20T19:13:21.514Z,96.47
2017-10-20T19:15:49.952Z,96.89
2017-10-20T19:18:19.284Z,96.89
2017-10-20T19:20:47.776Z,97.00
2017-10-20T19:23:16.245Z,96.70
2017-10-20T19:25:44.741Z,96.89
2017-10-20T19:28:13.228Z,97.20
2017-10-20T19:30:41.674Z,97.12
2017-10-20T19:33:10.892Z,97.00
2017-10-20T19:35:39.361Z,97.06
2017-10-20T19:38:07.861Z,97.68
2017-10-20T19:40:36.330Z,97.63
2017-10-20T19:43:04.793Z,97.50
2017-10-20T19:45:33.314Z,97.16
2017-10-20T19:48:01.758Z,96.73
2017-10-20T19:50:30.999Z,97.00
2017-10-20T19:52:59.445Z,97.36
2017-10-20T19:55:28.768Z,97.22
2017-10-20T19:57:57.221Z,96.96
2017-10-20T20:00:26.454Z,97.23
2017-10-20T20:02:54.934Z,97.50
2017-10-20T20:05:23.419Z,97.49
2017-10-20T20:07:56.718Z,97.32
2017-10-20T20:10:25.185Z,97.12
2017-10-20T20:12:53.682Z,97.21
2017-10-20T20:15:22.129Z,97.17
2017-10-20T20:17:51.465Z,97.34
2017-10-20T20:20:19.902Z,97.09
2017-10-20T20:22:49.249Z,97.33
2017-10-20T20:25:17.694Z,97.26
2017-10-20T20:27:47.031Z,97.02
2017-10-20T20:30:15.473Z,97.19
2017-10-20T20:32:48.575Z,96.98
2017-10-20T20:35:17.017Z,97.30
2017-10-20T20:37:45.481Z,97.18
2017-10-20T20:40:13.930Z,97.38
2017-10-20T20:42:42.398Z,97.73
2017-10-20T20:45:11.294Z,97.55
2017-10-20T20:47:39.761Z,97.35
2017-10-20T20:50:08.999Z,97.36
2017-10-20T20:52:37.466Z,97.09
2017-10-20T20:55:05.914Z,97.29
2017-10-20T20:57:35.277Z,97.34
2017-10-20T21:00:03.726Z,97.31
2017-10-20T21:02:32.221Z,96.86
2017-10-20T21:05:00.661Z,97.10
2017-10-20T21:07:29.893Z,97.43
2017-10-20T21:09:58.384Z,97.14
2017-10-20T21:12:26.853Z,96.80
2017-10-20T21:14:55.299Z,96.86
2017-10-20T21:17:23.774Z,96.80
2017-10-20T21:19:52.241Z,96.62
2017-10-20T21:22:20.686Z,96.63
2017-10-20T21:24:49.154Z,96.83
2017-10-20T21:27:17.598Z,96.95
2017-10-20T21:29:46.066Z,97.00
2017-10-20T21:32:14.505Z,97.28
2017-10-20T21:34:42.964Z,97.36
2017-10-20T21:37:12.167Z,97.38
2017-10-20T21:39:41.406Z,97.46
2017-10-20T21:42:09.849Z,97.35
2017-10-20T21:44:39.076Z,97.32
2017-10-20T21:47:07.526Z,97.56
2017-10-20T21:49:36.764Z,97.57
2017-10-20T21:52:05.247Z,97.72
2017-10-20T21:54:33.721Z,97.39
2017-10-20T21:57:02.181Z,97.14
2017-10-20T21:59:31.395Z,97.32
2017-10-20T22:01:59.890Z,97.19
2017-10-20T22:04:28.370Z,97.43
2017-10-20T22:06:56.838Z,97.44
2017-10-20T22:09:25.292Z,97.36
2017-10-20T22:11:54.522Z,97.38
2017-10-20T22:14:22.965Z,97.27
2017-10-20T22:16:51.493Z,97.83
2017-10-20T22:19:19.929Z,97.71
2017-10-20T22:21:49.170Z,97.59
2017-10-20T22:24:17.657Z,97.70
2017-10-20T22:26:46.125Z,97.91
2017-10-20T22:29:14.582Z,98.15
2017-10-20T22:31:43.817Z,98.11
2017-10-20T22:34:12.310Z,97.76
2017-10-20T22:36:40.758Z,97.80
2017-10-20T22:39:09.992Z,97.87
2017-10-20T22:41:38.428Z,98.09
2017-10-20T22:44:07.661Z,98.19
2017-10-20T22:46:36.151Z,98.20
2017-10-20T22:49:04.614Z,98.09
2017-10-20T22:51:33.063Z,98.01
2017-10-20T22:54:01.589Z,98.26
2017-10-20T22:56:30.033Z,98.48
2017-10-20T22:58:59.383Z,98.55
2017-10-20T23:01:27.862Z,98.36
2017-10-20T23:03:56.324Z,98.33
2017-10-20T23:06:24.757Z,98.44
2017-10-20T23:08:53.213Z,97.93
2017-10-20T23:11:21.653Z,97.67
2017-10-20T23:13:50.985Z,97.59
2017-10-20T23:16:19.427Z,97.57
2017-10-20T23:18:48.682Z,97.46
2017-10-20T23:21:17.127Z,97.72
2017-10-20T23:23:45.590Z,97.66
2017-10-20T23:26:14.822Z,97.36
2017-10-20T23:28:43.263Z,97.39
2017-10-20T23:31:11.730Z,97.57
2017-10-20T23:33:40.174Z,97.43
2017-10-20T23:36:08.633Z,97.65
2017-10-20T23:38:37.069Z,97.75
2017-10-20T23:41:05.535Z,97.84
2017-10-20T23:43:34.005Z,97.90
2017-10-20T23:46:02.472Z,97.81
2017-10-20T23:48:30.913Z,97.76
2017-10-20T23:50:59.373Z,97.61
2017-10-20T23:53:27.818Z,97.99
2017-10-20T23:55:56.277Z,97.62
2017-10-20T23:58:25.882Z,97.28
